Faisalabad, Pakistan
Current Conditions -  °F | °C
As of 7:55 AM on Sunday 21 Dec 2014 (Local Time) from OPLA Reporting Station
Moderate Fog Moderate Fog  
Wind Chill: 41°   Ceiling: Unl
Heat Index: 41°   Visibility: 0.03mi
Dew Point: 41°   Wind: 3mph
Humidity: 100%   Direction: 150°SSE
Pressure: NA   Gusts: NA
Location:  31.41°N, 73.11°E
Report Text: OPLA 210255Z 15003KT 0050 FG VV/// 05/05 Q1018/A30.06 BECMG0100
Loading
Personal Weather Stations






























Interactive Weather Map New forecast layout! Learn more

10-Day Weather Forecast

Advertisements
Track Severe Weather on mobile